Time;durP1;ratioP1;P1;durP2;ratioP2;P2;SDS_P1;SDS_P2;PMS_P1;PMS_P2;Temp;Humidity;BMP_temperature;BMP_pressure;BME280_temperature;BME280_humidity;BME280_pressure;Samples;Min_cycle;Max_cycle;Signal;HPM_P1;HPM_P2
2020/12/16 00:02:25;;;;;;;5.30;3.63;;;8.00;99.90;;;;;;4967046;28;20224;-81
2020/12/16 00:04:51;;;;;;;4.23;3.30;;;8.00;99.90;;;;;;4968280;28;20669;-79
2020/12/16 00:07:17;;;;;;;4.47;3.40;;;8.00;99.90;;;;;;4968807;28;20208;-79
2020/12/16 00:09:45;;;;;;;3.77;3.27;;;8.00;99.90;;;;;;4968128;28;20193;-79
2020/12/16 00:12:11;;;;;;;5.47;3.87;;;7.90;99.90;;;;;;4966444;28;20271;-79
2020/12/16 00:14:36;;;;;;;4.90;3.70;;;7.90;99.90;;;;;;4968756;28;20193;-80
2020/12/16 00:17:02;;;;;;;4.70;3.00;;;8.00;99.90;;;;;;4968154;28;20208;-80
2020/12/16 00:19:28;;;;;;;7.63;4.03;;;7.90;99.90;;;;;;4968701;28;20192;-79
2020/12/16 00:21:53;;;;;;;4.77;3.50;;;7.90;99.90;;;;;;4967939;28;20264;-79
2020/12/16 00:24:19;;;;;;;3.93;2.97;;;7.90;99.90;;;;;;4966839;28;20231;-80
2020/12/16 00:26:45;;;;;;;4.07;3.40;;;7.90;99.90;;;;;;4968358;28;20208;-79
2020/12/16 00:29:11;;;;;;;3.00;2.73;;;7.90;99.90;;;;;;4967717;28;20647;-78
2020/12/16 00:31:38;;;;;;;3.80;3.27;;;7.90;99.90;;;;;;4965724;28;20223;-79
2020/12/16 00:34:06;;;;;;;4.33;3.60;;;7.90;99.90;;;;;;4967141;28;20211;-78
2020/12/16 00:36:39;;;;;;;5.33;3.63;;;7.90;99.90;;;;;;4967027;28;20189;-79
2020/12/16 00:39:06;;;;;;;6.10;4.03;;;7.90;99.90;;;;;;4965424;28;20189;-79
2020/12/16 00:41:32;;;;;;;5.17;3.40;;;8.00;99.90;;;;;;4965484;28;20213;-79
2020/12/16 00:43:59;;;;;;;4.60;3.10;;;8.00;99.90;;;;;;4966594;28;20242;-79
2020/12/16 00:46:24;;;;;;;5.03;3.83;;;8.00;99.90;;;;;;5050771;28;20232;-79
2020/12/16 00:48:50;;;;;;;5.03;3.97;;;7.90;99.90;;;;;;4967041;28;20176;-79
2020/12/16 00:51:16;;;;;;;4.50;3.70;;;7.90;99.90;;;;;;4965415;28;20209;-79
2020/12/16 00:53:41;;;;;;;4.80;3.33;;;7.90;99.90;;;;;;4967068;28;20659;-79
2020/12/16 00:56:07;;;;;;;5.00;3.40;;;7.90;99.90;;;;;;4967231;28;20211;-79
2020/12/16 00:58:32;;;;;;;4.00;2.83;;;7.80;99.90;;;;;;4968162;28;20532;-80
2020/12/16 01:00:58;;;;;;;3.90;3.13;;;7.80;99.90;;;;;;4964704;28;20278;-79
2020/12/16 01:03:24;;;;;;;6.10;3.73;;;7.80;99.90;;;;;;4964355;28;20284;-79
2020/12/16 01:05:50;;;;;;;3.87;2.80;;;7.80;99.90;;;;;;4961815;28;20219;-78
2020/12/16 01:08:16;;;;;;;4.73;3.00;;;7.80;99.90;;;;;;4966354;28;20201;-79
2020/12/16 01:10:41;;;;;;;3.80;3.33;;;7.80;99.90;;;;;;4966167;28;20672;-79
2020/12/16 01:13:07;;;;;;;4.27;3.03;;;7.80;99.90;;;;;;4966397;28;20539;-79
2020/12/16 01:15:32;;;;;;;4.03;3.03;;;7.80;99.90;;;;;;4965375;28;20193;-79
2020/12/16 01:17:58;;;;;;;3.77;2.97;;;7.80;99.90;;;;;;4965465;28;20216;-79
2020/12/16 01:20:23;;;;;;;4.60;3.40;;;7.80;99.90;;;;;;4966895;28;20296;-79
2020/12/16 01:22:49;;;;;;;5.13;3.73;;;7.80;99.90;;;;;;4966394;28;20239;-79
2020/12/16 01:25:17;;;;;;;3.63;2.90;;;7.80;99.90;;;;;;4965000;28;20224;-79
2020/12/16 01:27:43;;;;;;;4.17;3.53;;;7.80;99.90;;;;;;4965733;28;20278;-79
2020/12/16 01:30:10;;;;;;;3.63;3.13;;;7.80;99.90;;;;;;4966137;28;20726;-79
2020/12/16 01:32:37;;;;;;;4.57;3.63;;;7.80;99.90;;;;;;4964990;28;20189;-79
2020/12/16 01:35:09;;;;;;;5.93;3.30;;;7.80;99.90;;;;;;4966038;28;20221;-78
2020/12/16 01:37:36;;;;;;;4.70;3.50;;;7.80;99.90;;;;;;4965077;28;20197;-79
2020/12/16 01:40:08;;;;;;;4.30;3.20;;;7.90;99.90;;;;;;4964642;28;20302;-79
2020/12/16 01:42:41;;;;;;;4.87;3.40;;;7.80;99.90;;;;;;4965519;28;20192;-79
2020/12/16 01:45:19;;;;;;;3.97;3.17;;;7.80;99.90;;;;;;4965242;28;20193;-79
2020/12/16 01:47:45;;;;;;;3.90;2.80;;;7.80;99.90;;;;;;4965947;28;20338;-79
2020/12/16 01:50:11;;;;;;;4.87;2.97;;;7.80;99.90;;;;;;4964740;28;20321;-78
2020/12/16 01:52:38;;;;;;;5.70;3.23;;;7.80;99.90;;;;;;4980620;28;20203;-79
2020/12/16 01:55:07;;;;;;;4.83;3.27;;;7.80;99.90;;;;;;4964317;28;20222;-80
2020/12/16 01:57:37;;;;;;;4.00;3.23;;;7.80;99.90;;;;;;4966806;28;20201;-79
2020/12/16 02:00:06;;;;;;;4.40;3.17;;;7.70;99.90;;;;;;4965830;28;20213;-79
2020/12/16 02:02:36;;;;;;;11.80;3.73;;;7.70;99.90;;;;;;4964236;28;20194;-79
2020/12/16 02:05:03;;;;;;;3.50;2.80;;;7.60;99.90;;;;;;4981059;28;20188;-80
2020/12/16 02:07:31;;;;;;;3.60;3.13;;;7.60;99.90;;;;;;4965792;28;20259;-83
2020/12/16 02:09:56;;;;;;;8.60;3.20;;;7.50;99.90;;;;;;4964653;28;20255;-80
2020/12/16 02:12:28;;;;;;;4.00;2.87;;;7.60;99.90;;;;;;4966206;28;20189;-79
2020/12/16 02:14:54;;;;;;;3.90;3.40;;;7.50;99.90;;;;;;4965957;28;21218;-83
2020/12/16 02:17:19;;;;;;;4.73;3.30;;;7.50;99.90;;;;;;4964167;28;20200;-80
2020/12/16 02:20:05;;;;;;;5.10;3.27;;;7.50;99.90;;;;;;4964330;28;20670;-80
2020/12/16 02:22:31;;;;;;;4.60;3.40;;;7.50;99.90;;;;;;4966152;28;20265;-79
2020/12/16 02:25:00;;;;;;;5.37;3.70;;;7.50;99.90;;;;;;4965910;28;20212;-79
2020/12/16 02:27:27;;;;;;;4.20;3.37;;;7.50;99.90;;;;;;4966230;28;20205;-80
2020/12/16 02:29:53;;;;;;;4.17;3.17;;;7.40;99.90;;;;;;4965802;28;20622;-81
2020/12/16 02:32:19;;;;;;;4.80;3.53;;;7.50;99.90;;;;;;4965773;28;20580;-77
2020/12/16 02:34:45;;;;;;;5.10;3.60;;;7.50;99.90;;;;;;4965386;28;20185;-79
2020/12/16 02:37:11;;;;;;;4.83;3.73;;;7.60;99.90;;;;;;4964728;28;20188;-79
2020/12/16 02:39:37;;;;;;;3.93;3.23;;;7.50;99.90;;;;;;4964392;28;20191;-77
2020/12/16 02:42:05;;;;;;;4.53;3.00;;;7.50;99.90;;;;;;4963824;28;20215;-79
2020/12/16 02:44:31;;;;;;;5.83;3.93;;;7.50;99.90;;;;;;4965061;28;20188;-83
2020/12/16 02:46:58;;;;;;;4.93;3.77;;;7.50;99.90;;;;;;4963503;28;20213;-80
2020/12/16 02:49:23;;;;;;;4.43;3.60;;;7.50;99.90;;;;;;4965372;28;20274;-80
2020/12/16 02:51:49;;;;;;;4.83;4.03;;;7.50;99.90;;;;;;4966728;28;20233;-80
2020/12/16 02:54:15;;;;;;;4.17;3.23;;;7.50;99.90;;;;;;4965404;28;20181;-80
2020/12/16 02:56:45;;;;;;;5.07;3.73;;;7.50;99.90;;;;;;4966445;28;21178;-79
2020/12/16 02:59:11;;;;;;;6.07;4.47;;;7.60;99.90;;;;;;4965133;28;20195;-79
2020/12/16 03:01:36;;;;;;;6.10;4.47;;;7.60;99.90;;;;;;4964422;28;20607;-79
2020/12/16 03:04:02;;;;;;;6.40;3.87;;;7.50;99.90;;;;;;4966394;28;20232;-78
2020/12/16 03:06:28;;;;;;;4.77;3.67;;;7.60;99.90;;;;;;4964225;28;20212;-77
2020/12/16 03:08:53;;;;;;;4.47;3.13;;;7.60;99.90;;;;;;4964499;28;20193;-81
2020/12/16 03:11:19;;;;;;;5.20;3.57;;;7.60;99.90;;;;;;4964169;28;20205;-80
2020/12/16 03:13:44;;;;;;;5.37;3.80;;;7.50;99.90;;;;;;4964589;28;20189;-80
2020/12/16 03:16:17;;;;;;;4.30;3.53;;;7.60;99.90;;;;;;4964382;28;20215;-79
2020/12/16 03:18:42;;;;;;;5.17;3.50;;;7.50;99.90;;;;;;4965638;28;20185;-78
2020/12/16 03:21:08;;;;;;;4.57;3.77;;;7.50;99.90;;;;;;4965877;28;20259;-81
2020/12/16 03:23:35;;;;;;;7.67;3.33;;;7.50;99.90;;;;;;4964518;28;20202;-80
2020/12/16 03:26:04;;;;;;;6.63;4.20;;;7.50;99.90;;;;;;4964241;28;20223;-79
2020/12/16 03:28:30;;;;;;;4.67;3.90;;;7.50;99.90;;;;;;4965074;28;20204;-79
2020/12/16 03:30:56;;;;;;;4.63;3.50;;;7.50;99.90;;;;;;4964490;28;21080;-77
2020/12/16 03:33:21;;;;;;;4.87;3.53;;;7.50;99.90;;;;;;4963362;28;20612;-79
2020/12/16 03:35:47;;;;;;;4.67;3.57;;;7.50;99.90;;;;;;4964603;28;20883;-82
2020/12/16 03:38:12;;;;;;;6.13;3.70;;;7.50;99.90;;;;;;4964671;28;20197;-79
2020/12/16 03:40:38;;;;;;;6.90;4.20;;;7.50;99.90;;;;;;4963844;28;20216;-79
2020/12/16 03:43:04;;;;;;;4.63;4.03;;;7.50;99.90;;;;;;4964146;28;20193;-80
2020/12/16 03:45:29;;;;;;;5.57;4.27;;;7.50;99.90;;;;;;4963442;28;20196;-79
2020/12/16 03:47:55;;;;;;;4.70;3.47;;;7.50;99.90;;;;;;4964916;28;20216;-81
2020/12/16 03:50:20;;;;;;;4.30;3.80;;;7.50;99.90;;;;;;4965421;28;20572;-78
2020/12/16 03:52:46;;;;;;;5.43;4.63;;;7.50;99.90;;;;;;4965705;28;20728;-81
2020/12/16 03:55:12;;;;;;;4.53;3.97;;;7.50;99.90;;;;;;4965252;28;20216;-81
2020/12/16 03:57:37;;;;;;;6.10;4.07;;;7.50;99.90;;;;;;4965607;28;20197;-78
2020/12/16 04:00:10;;;;;;;3.97;3.20;;;7.50;99.90;;;;;;4964035;28;20227;-80
2020/12/16 04:02:38;;;;;;;4.87;2.90;;;7.40;99.90;;;;;;4964285;28;20197;-79
2020/12/16 04:05:07;;;;;;;4.57;3.53;;;7.50;99.90;;;;;;4964155;28;20203;-81
2020/12/16 04:07:33;;;;;;;2.93;2.63;;;7.50;99.90;;;;;;4963416;28;20287;-80
2020/12/16 04:09:59;;;;;;;5.80;3.97;;;7.40;99.90;;;;;;4965802;28;20330;-80
2020/12/16 04:12:24;;;;;;;4.33;3.50;;;7.40;99.90;;;;;;4963911;28;20196;-78
2020/12/16 04:14:50;;;;;;;4.90;3.40;;;7.40;99.90;;;;;;4963906;28;20193;-81
2020/12/16 04:17:16;;;;;;;3.87;3.03;;;7.40;99.90;;;;;;4964018;28;20202;-80
2020/12/16 04:19:41;;;;;;;4.37;3.80;;;7.40;99.90;;;;;;4964169;28;20199;-81
2020/12/16 04:22:07;;;;;;;4.57;3.50;;;7.40;99.90;;;;;;4965940;28;20631;-79
2020/12/16 04:24:32;;;;;;;5.63;3.57;;;7.30;99.90;;;;;;4964074;28;20197;-79
2020/12/16 04:26:58;;;;;;;5.53;4.13;;;7.40;99.90;;;;;;4965111;28;20205;-82
2020/12/16 04:29:25;;;;;;;5.17;3.73;;;7.30;99.90;;;;;;4964062;28;20786;-77
2020/12/16 04:31:52;;;;;;;5.13;3.43;;;7.30;99.90;;;;;;4964730;28;20259;-80
2020/12/16 04:34:18;;;;;;;4.27;3.23;;;7.30;99.90;;;;;;4964705;28;20201;-78
2020/12/16 04:36:51;;;;;;;4.13;3.60;;;7.30;99.90;;;;;;4964911;28;20224;-79
2020/12/16 04:39:18;;;;;;;3.77;3.10;;;7.30;99.90;;;;;;4963665;28;20200;-80
2020/12/16 04:41:44;;;;;;;4.10;3.57;;;7.40;99.90;;;;;;4967600;28;20291;-79
2020/12/16 04:44:11;;;;;;;6.87;3.97;;;7.30;99.90;;;;;;4967514;28;20573;-80
2020/12/16 04:46:39;;;;;;;5.17;3.77;;;7.40;99.90;;;;;;4967852;28;20204;-79
2020/12/16 04:49:06;;;;;;;5.97;3.97;;;7.40;99.90;;;;;;4966979;28;20262;-78
2020/12/16 04:51:34;;;;;;;5.63;4.30;;;7.40;99.90;;;;;;4967690;28;20209;-81
2020/12/16 04:54:01;;;;;;;5.70;4.43;;;7.40;99.90;;;;;;4968151;28;20276;-78
2020/12/16 04:56:27;;;;;;;5.83;3.97;;;7.40;99.90;;;;;;4966470;28;20232;-82
2020/12/16 04:58:56;;;;;;;7.80;5.33;;;7.30;99.90;;;;;;4966277;28;20245;-81
2020/12/16 05:01:22;;;;;;;5.00;4.27;;;7.40;99.90;;;;;;4967451;28;20221;-79
2020/12/16 05:03:48;;;;;;;6.33;4.67;;;7.30;99.90;;;;;;4967805;28;20200;-80
2020/12/16 05:06:39;;;;;;;5.97;4.07;;;7.30;99.90;;;;;;4967210;28;20647;-81
2020/12/16 05:09:06;;;;;;;5.80;4.23;;;7.20;99.90;;;;;;4966826;28;20189;-80
2020/12/16 05:11:50;;;;;;;5.57;4.20;;;7.30;99.90;;;;;;4966432;28;20294;-81
2020/12/16 05:14:24;;;;;;;6.27;4.67;;;7.20;99.90;;;;;;4966475;28;20189;-80
2020/12/16 05:17:04;;;;;;;6.77;4.67;;;7.20;99.90;;;;;;4967494;28;20552;-80
2020/12/16 05:19:36;;;;;;;4.73;3.73;;;7.10;99.90;;;;;;4967678;28;20185;-81
2020/12/16 05:22:21;;;;;;;6.10;4.27;;;7.10;99.90;;;;;;4966926;28;20189;-82
2020/12/16 05:24:50;;;;;;;6.50;4.10;;;7.10;99.90;;;;;;4966505;28;20193;-80
2020/12/16 05:27:21;;;;;;;5.60;3.43;;;7.10;99.90;;;;;;4965918;28;20244;-80
2020/12/16 05:29:50;;;;;;;4.70;3.20;;;7.10;99.90;;;;;;4966264;28;20216;-79
2020/12/16 05:32:23;;;;;;;5.07;3.90;;;7.10;99.90;;;;;;4967565;28;20262;-79
2020/12/16 05:34:50;;;;;;;8.00;4.77;;;7.10;99.90;;;;;;4967361;28;20239;-82
2020/12/16 05:37:36;;;;;;;5.87;4.87;;;7.10;99.90;;;;;;4966038;28;20570;-79
2020/12/16 05:40:11;;;;;;;5.73;3.83;;;7.20;99.90;;;;;;4966113;28;20224;-79
2020/12/16 05:42:38;;;;;;;5.50;4.30;;;7.20;99.90;;;;;;4966521;28;20230;-80
2020/12/16 05:45:13;;;;;;;5.40;4.67;;;7.10;99.90;;;;;;4967408;28;20733;-80
2020/12/16 05:47:41;;;;;;;5.50;4.40;;;7.10;99.90;;;;;;4967203;28;20257;-80
2020/12/16 05:50:16;;;;;;;8.03;5.00;;;7.20;99.90;;;;;;4967771;28;20205;-80
2020/12/16 05:52:42;;;;;;;6.27;4.83;;;7.20;99.90;;;;;;4965916;28;20268;-80
2020/12/16 05:55:07;;;;;;;5.93;4.60;;;7.20;99.90;;;;;;4966939;28;20280;-78
2020/12/16 05:57:33;;;;;;;5.50;3.97;;;7.20;99.90;;;;;;4968909;28;20201;-82
2020/12/16 06:00:11;;;;;;;5.80;4.40;;;7.30;99.90;;;;;;4966552;28;20511;-80
2020/12/16 06:02:39;;;;;;;5.00;4.23;;;7.20;99.90;;;;;;4964227;28;20787;-79
2020/12/16 06:05:16;;;;;;;6.17;4.60;;;7.20;99.90;;;;;;4964128;28;20201;-78
2020/12/16 06:07:46;;;;;;;5.60;3.97;;;7.20;99.90;;;;;;4965584;28;20216;-81
2020/12/16 06:10:12;;;;;;;5.50;4.30;;;7.20;99.90;;;;;;4966992;28;20205;-79
2020/12/16 06:12:39;;;;;;;7.83;5.40;;;7.20;99.90;;;;;;4965668;28;20278;-80
2020/12/16 06:15:10;;;;;;;9.40;5.23;;;7.20;99.90;;;;;;4982010;28;20195;-79
2020/12/16 06:17:47;;;;;;;6.87;4.43;;;7.20;99.90;;;;;;4965607;28;20245;-80
2020/12/16 06:20:16;;;;;;;9.30;5.53;;;7.20;99.90;;;;;;4964729;28;20225;-79
2020/12/16 06:22:43;;;;;;;5.53;4.70;;;7.20;99.90;;;;;;4965119;28;20193;-80
2020/12/16 06:25:14;;;;;;;8.80;6.37;;;7.20;99.90;;;;;;4965505;28;20551;-81
2020/12/16 06:27:45;;;;;;;6.83;5.07;;;7.20;99.90;;;;;;4966688;28;20201;-81
2020/12/16 06:30:32;;;;;;;7.13;4.53;;;7.20;99.90;;;;;;4964059;28;20220;-81
2020/12/16 06:33:30;;;;;;;7.57;4.97;;;7.20;99.90;;;;;;4965851;28;20188;-82
2020/12/16 06:36:03;;;;;;;5.33;4.80;;;7.20;99.90;;;;;;5033471;28;20746;-82
2020/12/16 06:38:28;;;;;;;4.47;3.30;;;7.20;99.90;;;;;;4966635;28;20901;-79
2020/12/16 06:40:56;;;;;;;7.13;5.37;;;7.20;99.90;;;;;;4964767;28;20246;-78
2020/12/16 06:43:31;;;;;;;5.17;4.60;;;7.10;99.90;;;;;;4965124;28;20295;-79
2020/12/16 06:45:58;;;;;;;7.43;4.37;;;7.10;99.90;;;;;;4964749;28;20202;-79
2020/12/16 06:48:34;;;;;;;6.40;4.97;;;7.00;99.90;;;;;;4966407;28;20243;-81
2020/12/16 06:51:16;;;;;;;6.77;4.60;;;7.00;99.90;;;;;;4964535;28;20216;-79
2020/12/16 06:53:43;;;;;;;6.93;4.97;;;7.00;99.90;;;;;;4964907;28;20208;-80
2020/12/16 06:56:09;;;;;;;6.50;5.03;;;7.00;99.90;;;;;;4966186;28;20184;-81
2020/12/16 06:58:36;;;;;;;5.37;4.07;;;7.00;99.90;;;;;;4965098;28;20254;-81
2020/12/16 07:01:16;;;;;;;6.27;4.47;;;7.00;99.90;;;;;;4964875;28;20209;-80
2020/12/16 07:03:42;;;;;;;6.00;4.50;;;6.90;99.90;;;;;;4965926;28;20177;-79
2020/12/16 07:06:31;;;;;;;7.90;5.20;;;6.90;99.90;;;;;;4963098;28;20597;-77
2020/12/16 07:09:17;;;;;;;5.57;4.87;;;6.90;99.90;;;;;;4988101;28;20207;-79
2020/12/16 07:11:53;;;;;;;5.63;5.07;;;6.90;99.90;;;;;;4964967;28;20225;-81
2020/12/16 07:14:25;;;;;;;6.20;4.43;;;6.90;99.90;;;;;;4966328;28;20247;-80
2020/12/16 07:16:51;;;;;;;7.80;5.43;;;6.90;99.90;;;;;;4965824;28;20230;-79
2020/12/16 07:19:27;;;;;;;7.23;5.30;;;6.80;99.90;;;;;;4963150;28;20193;-78
2020/12/16 07:21:55;;;;;;;6.37;4.73;;;6.80;99.90;;;;;;4966153;28;20220;-79
2020/12/16 07:24:22;;;;;;;7.73;4.60;;;6.90;99.90;;;;;;4965837;28;20184;-78
2020/12/16 07:26:53;;;;;;;7.17;4.73;;;6.90;99.90;;;;;;4981110;28;20801;-78
2020/12/16 07:29:32;;;;;;;15.33;9.90;;;6.90;99.90;;;;;;4966061;28;20185;-81
2020/12/16 07:32:25;;;;;;;21.53;14.23;;;6.90;99.90;;;;;;4967453;28;20183;-81
2020/12/16 07:34:54;;;;;;;32.13;20.43;;;7.00;99.90;;;;;;4962030;28;20200;-77
2020/12/16 07:37:24;;;;;;;13.23;9.40;;;7.00;99.90;;;;;;4965359;28;20630;-80
2020/12/16 07:39:55;;;;;;;10.17;8.10;;;7.00;99.90;;;;;;4964805;28;20184;-81
2020/12/16 07:42:27;;;;;;;9.63;6.70;;;7.00;99.90;;;;;;4964781;28;20650;-79
2020/12/16 07:44:54;;;;;;;7.03;5.13;;;7.10;99.90;;;;;;4963779;28;20188;-82
2020/12/16 07:47:20;;;;;;;5.83;4.93;;;7.10;99.90;;;;;;4965066;28;20212;-81
2020/12/16 07:49:45;;;;;;;8.00;5.40;;;7.10;99.90;;;;;;4964964;28;20953;-79
2020/12/16 07:52:12;;;;;;;9.60;6.40;;;7.10;99.90;;;;;;4964891;28;20280;-78
2020/12/16 07:54:38;;;;;;;6.63;5.50;;;7.10;99.90;;;;;;4965394;28;20187;-80
2020/12/16 07:57:04;;;;;;;7.40;5.27;;;7.10;99.90;;;;;;4966077;28;20212;-83
2020/12/16 07:59:33;;;;;;;8.40;5.90;;;7.10;99.90;;;;;;4964413;28;20243;-79
2020/12/16 08:02:13;;;;;;;8.37;5.10;;;7.10;99.90;;;;;;4965291;28;20292;-79
2020/12/16 08:04:42;;;;;;;5.40;4.07;;;7.10;99.90;;;;;;4964080;28;20193;-80
2020/12/16 08:07:18;;;;;;;6.37;4.60;;;7.00;99.90;;;;;;4964204;28;20236;-80
2020/12/16 08:09:51;;;;;;;6.97;5.40;;;6.90;99.90;;;;;;4963676;28;20250;-79
2020/12/16 08:12:18;;;;;;;8.10;5.87;;;6.90;99.90;;;;;;4965615;28;20202;-78
2020/12/16 08:14:44;;;;;;;6.97;5.67;;;6.90;99.90;;;;;;4965157;28;20551;-79
2020/12/16 08:17:09;;;;;;;8.33;5.50;;;7.00;99.90;;;;;;4982880;28;20185;-80
2020/12/16 08:19:35;;;;;;;10.47;7.23;;;6.90;99.90;;;;;;4967698;28;20178;-78
2020/12/16 08:22:14;;;;;;;10.07;6.80;;;6.90;99.90;;;;;;4966461;28;20196;-79
2020/12/16 08:24:40;;;;;;;7.73;5.63;;;7.00;99.90;;;;;;4967797;28;20184;-78
2020/12/16 08:27:05;;;;;;;7.73;5.47;;;7.00;99.90;;;;;;4966798;28;20205;-79
2020/12/16 08:29:33;;;;;;;6.70;5.57;;;7.10;99.90;;;;;;4965246;28;20185;-79
2020/12/16 08:31:59;;;;;;;11.03;7.13;;;7.20;99.90;;;;;;4965812;28;20222;-79
2020/12/16 08:34:27;;;;;;;6.60;4.47;;;7.20;99.90;;;;;;4969055;28;20216;-85
2020/12/16 08:36:55;;;;;;;6.57;5.13;;;7.20;99.90;;;;;;4984387;28;20196;-77
2020/12/16 08:39:24;;;;;;;7.60;5.27;;;7.20;99.90;;;;;;4968321;28;20189;-76
2020/12/16 08:41:54;;;;;;;7.47;5.33;;;7.10;99.90;;;;;;4965913;28;20205;-75
2020/12/16 08:44:23;;;;;;;9.33;6.20;;;7.20;99.90;;;;;;4965926;28;20712;-75
2020/12/16 08:46:50;;;;;;;9.83;6.53;;;7.20;99.90;;;;;;4965191;28;20253;-75
2020/12/16 08:49:20;;;;;;;7.60;5.20;;;7.20;99.90;;;;;;4965473;28;20200;-76
2020/12/16 08:51:46;;;;;;;8.80;6.30;;;7.20;99.90;;;;;;4965658;28;20298;-73
2020/12/16 08:54:16;;;;;;;8.07;5.37;;;7.20;99.90;;;;;;4965163;28;20223;-76
2020/12/16 08:56:49;;;;;;;5.53;4.47;;;7.30;99.90;;;;;;4964788;28;20334;-76
2020/12/16 08:59:28;;;;;;;8.07;5.37;;;7.30;99.90;;;;;;4964839;28;20193;-75
2020/12/16 09:02:06;;;;;;;8.97;5.50;;;7.40;99.90;;;;;;4964790;28;20215;-74
2020/12/16 09:04:33;;;;;;;9.70;6.70;;;7.50;99.90;;;;;;4964855;28;21071;-75
2020/12/16 09:07:12;;;;;;;10.30;6.77;;;7.60;99.90;;;;;;4965200;28;20597;-76
2020/12/16 09:09:58;;;;;;;8.30;6.40;;;7.60;99.90;;;;;;4965644;28;20709;-75
2020/12/16 09:12:25;;;;;;;7.37;5.40;;;7.70;99.90;;;;;;4964933;28;20605;-75
2020/12/16 09:14:55;;;;;;;9.27;5.30;;;7.70;99.90;;;;;;4965015;28;20224;-76
2020/12/16 09:17:26;;;;;;;12.37;5.97;;;7.70;99.90;;;;;;4965834;28;20191;-76
2020/12/16 09:19:52;;;;;;;9.23;6.20;;;7.80;99.90;;;;;;4979719;28;20220;-76
2020/12/16 09:22:27;;;;;;;7.77;6.07;;;7.70;99.90;;;;;;4965507;28;20766;-75
2020/12/16 09:24:53;;;;;;;8.77;5.97;;;7.60;99.90;;;;;;4980022;28;20188;-74
2020/12/16 09:27:19;;;;;;;8.07;5.17;;;7.60;99.90;;;;;;4966416;28;20212;-81
2020/12/16 09:29:46;;;;;;;6.20;4.83;;;7.60;99.90;;;;;;4966248;28;20189;-79
2020/12/16 09:32:24;;;;;;;8.13;5.73;;;7.60;99.90;;;;;;4967330;28;20651;-79
2020/12/16 09:34:51;;;;;;;7.33;5.47;;;7.60;99.90;;;;;;4966588;28;20184;-79
2020/12/16 09:37:32;;;;;;;9.83;6.20;;;7.60;99.90;;;;;;4967876;28;20750;-79
2020/12/16 09:40:05;;;;;;;9.23;6.00;;;7.50;99.90;;;;;;4966527;28;20311;-80
2020/12/16 09:42:30;;;;;;;8.53;6.60;;;7.50;99.90;;;;;;4967718;28;20682;-79
2020/12/16 09:45:20;;;;;;;9.03;5.77;;;7.40;99.90;;;;;;4965392;28;20270;-79
2020/12/16 09:47:51;;;;;;;9.43;6.10;;;7.40;99.90;;;;;;4965057;28;20702;-79
2020/12/16 09:50:28;;;;;;;8.13;5.80;;;7.50;99.90;;;;;;4966238;28;20217;-79
2020/12/16 09:53:02;;;;;;;11.10;7.33;;;7.60;99.90;;;;;;4967332;28;20189;-79
2020/12/16 09:55:30;;;;;;;9.83;7.23;;;7.70;99.90;;;;;;4965788;28;20271;-79
2020/12/16 09:58:10;;;;;;;10.93;6.77;;;7.80;99.90;;;;;;4968694;28;20629;-79
2020/12/16 10:00:38;;;;;;;9.70;6.47;;;7.90;99.90;;;;;;4967815;28;20295;-81
2020/12/16 10:03:06;;;;;;;10.53;6.70;;;8.00;99.90;;;;;;4967415;28;20196;-79
2020/12/16 10:05:36;;;;;;;10.67;8.17;;;8.10;99.90;;;;;;4964994;28;20251;-78
2020/12/16 10:08:12;;;;;;;12.10;6.87;;;8.20;99.90;;;;;;4967669;28;20228;-79
2020/12/16 10:10:41;;;;;;;11.13;7.37;;;8.30;99.90;;;;;;4966234;28;20734;-81
2020/12/16 10:13:06;;;;;;;8.23;5.57;;;8.50;99.90;;;;;;4964446;28;20177;-80
2020/12/16 10:15:32;;;;;;;10.13;7.10;;;8.60;99.90;;;;;;4965652;28;20252;-80
2020/12/16 10:17:58;;;;;;;8.13;5.83;;;8.70;99.90;;;;;;4964893;28;20678;-80
2020/12/16 10:20:24;;;;;;;27.77;9.30;;;8.70;99.90;;;;;;4966759;28;20212;-79
2020/12/16 10:22:50;;;;;;;13.73;7.43;;;8.80;99.90;;;;;;4965080;28;20196;-80
2020/12/16 10:25:16;;;;;;;10.47;6.90;;;8.80;99.90;;;;;;4965742;28;20593;-80
2020/12/16 10:27:41;;;;;;;17.40;11.77;;;8.90;99.90;;;;;;4965273;28;20311;-81
2020/12/16 10:30:07;;;;;;;11.63;7.87;;;8.90;99.90;;;;;;4965624;28;20213;-80
2020/12/16 10:32:38;;;;;;;14.00;8.47;;;9.00;99.90;;;;;;4965091;28;20223;-80
2020/12/16 10:35:03;;;;;;;14.00;7.57;;;9.00;99.90;;;;;;4965327;28;20200;-81
2020/12/16 10:37:29;;;;;;;13.37;8.40;;;9.00;99.90;;;;;;4964286;28;20185;-80
2020/12/16 10:39:55;;;;;;;11.13;6.97;;;9.10;99.90;;;;;;4964713;28;20223;-80
2020/12/16 10:42:23;;;;;;;16.07;9.80;;;9.10;99.90;;;;;;4964214;28;20197;-81
2020/12/16 10:44:49;;;;;;;26.53;7.20;;;9.10;99.90;;;;;;4966154;28;20207;-79
2020/12/16 10:47:15;;;;;;;15.40;10.07;;;9.10;99.90;;;;;;4961774;28;20657;-80
2020/12/16 10:49:41;;;;;;;16.43;10.17;;;9.10;99.90;;;;;;4962914;28;20196;-81
2020/12/16 10:52:09;;;;;;;10.10;6.63;;;9.20;99.90;;;;;;4961384;28;20185;-80
2020/12/16 10:54:35;;;;;;;19.77;6.53;;;9.20;99.90;;;;;;4962477;28;20242;-80
2020/12/16 10:57:02;;;;;;;16.50;9.23;;;9.20;99.90;;;;;;4961374;28;20204;-80
2020/12/16 10:59:29;;;;;;;18.23;8.27;;;9.20;99.90;;;;;;4962969;28;20560;-80
2020/12/16 11:01:58;;;;;;;15.97;8.63;;;9.20;99.90;;;;;;4961252;28;20691;-80
2020/12/16 11:04:27;;;;;;;13.20;9.40;;;9.30;99.90;;;;;;4962967;28;20193;-80
2020/12/16 11:06:53;;;;;;;10.50;7.40;;;9.30;99.90;;;;;;4962338;28;20733;-80
2020/12/16 11:09:19;;;;;;;9.47;7.77;;;9.30;99.90;;;;;;4962212;28;20181;-80
2020/12/16 11:11:47;;;;;;;19.87;6.90;;;9.30;99.90;;;;;;4961673;28;20201;-80
2020/12/16 11:14:13;;;;;;;13.67;9.57;;;9.30;99.90;;;;;;4961123;28;20250;-80
2020/12/16 11:16:40;;;;;;;10.53;7.27;;;9.30;99.90;;;;;;4959962;28;20197;-80
2020/12/16 11:19:07;;;;;;;10.33;6.60;;;9.30;99.90;;;;;;4962054;28;20312;-80
2020/12/16 11:21:41;;;;;;;10.57;7.73;;;9.40;99.90;;;;;;4959894;28;20274;-80
2020/12/16 11:24:08;;;;;;;11.23;7.10;;;9.40;99.90;;;;;;4961367;28;20188;-81
2020/12/16 11:26:42;;;;;;;11.80;7.23;;;9.40;99.90;;;;;;4959609;28;20230;-81
2020/12/16 11:29:08;;;;;;;10.47;6.43;;;9.40;99.90;;;;;;4961244;28;20376;-80
2020/12/16 11:31:39;;;;;;;10.07;6.63;;;9.40;99.90;;;;;;4962918;28;20230;-81
2020/12/16 11:34:05;;;;;;;10.80;6.80;;;9.50;99.90;;;;;;4963625;28;20685;-80
2020/12/16 11:36:31;;;;;;;8.50;6.20;;;9.50;99.90;;;;;;4961358;28;20471;-81
2020/12/16 11:38:56;;;;;;;9.57;6.97;;;9.50;99.90;;;;;;4962574;28;20689;-81
2020/12/16 11:41:22;;;;;;;17.43;11.07;;;9.60;99.90;;;;;;4962234;28;20682;-78
2020/12/16 11:43:47;;;;;;;11.93;8.10;;;9.60;99.90;;;;;;4962048;28;20735;-81
2020/12/16 11:46:13;;;;;;;7.10;5.40;;;9.70;99.90;;;;;;4967035;28;20203;-83
2020/12/16 11:48:39;;;;;;;9.77;7.00;;;9.60;99.90;;;;;;4966204;28;20195;-80
2020/12/16 11:51:05;;;;;;;8.07;5.77;;;9.60;99.90;;;;;;4970905;28;20212;-81
2020/12/16 11:53:30;;;;;;;9.50;6.30;;;9.60;99.90;;;;;;4970676;28;20191;-80
2020/12/16 11:55:56;;;;;;;9.67;6.03;;;9.70;99.90;;;;;;4969213;28;20199;-80
2020/12/16 11:58:23;;;;;;;11.77;6.23;;;9.70;99.90;;;;;;4966614;28;20211;-80
2020/12/16 12:00:48;;;;;;;9.57;6.27;;;9.70;99.90;;;;;;4968701;28;20219;-80
2020/12/16 12:03:14;;;;;;;9.10;5.67;;;9.60;99.90;;;;;;4968155;28;20192;-80
2020/12/16 12:05:40;;;;;;;8.37;5.90;;;9.70;99.90;;;;;;4966988;28;20204;-80
2020/12/16 12:08:06;;;;;;;9.50;5.00;;;9.70;99.90;;;;;;4966619;28;20270;-80
2020/12/16 12:10:32;;;;;;;6.30;4.67;;;9.70;99.90;;;;;;4966723;28;20209;-80
2020/12/16 12:12:57;;;;;;;5.97;4.17;;;9.70;99.90;;;;;;4967716;28;20200;-80
2020/12/16 12:15:23;;;;;;;7.23;5.23;;;9.80;99.90;;;;;;4966604;28;20651;-80
2020/12/16 12:17:48;;;;;;;6.77;5.00;;;9.80;99.90;;;;;;4966743;28;20282;-80
2020/12/16 12:20:14;;;;;;;8.20;5.37;;;9.80;99.90;;;;;;4967235;28;20213;-80
2020/12/16 12:22:40;;;;;;;6.77;4.67;;;9.80;99.90;;;;;;4967114;28;20193;-79
2020/12/16 12:25:05;;;;;;;8.47;4.80;;;9.90;99.90;;;;;;4966401;28;20188;-81
2020/12/16 12:27:31;;;;;;;8.47;5.33;;;9.90;99.90;;;;;;4966148;28;20592;-80
2020/12/16 12:29:57;;;;;;;6.80;4.87;;;9.90;99.90;;;;;;4965190;28;20315;-81
2020/12/16 12:32:22;;;;;;;7.07;4.87;;;9.90;99.90;;;;;;4965798;28;20189;-81
2020/12/16 12:34:48;;;;;;;10.87;7.07;;;9.80;99.90;;;;;;4967892;28;20189;-75
2020/12/16 12:37:13;;;;;;;7.97;4.83;;;9.90;99.90;;;;;;4971624;28;20192;-75
2020/12/16 12:39:39;;;;;;;10.10;7.27;;;9.90;99.90;;;;;;4970980;28;20192;-75
2020/12/16 12:42:04;;;;;;;8.00;6.00;;;9.80;99.90;;;;;;4969828;28;20217;-76
2020/12/16 12:44:30;;;;;;;6.27;4.70;;;9.70;99.90;;;;;;4970243;28;20193;-75
2020/12/16 12:46:55;;;;;;;7.70;5.37;;;9.60;99.90;;;;;;4968529;28;20240;-75
2020/12/16 12:49:21;;;;;;;9.10;7.57;;;9.60;99.90;;;;;;4968617;28;20181;-80
2020/12/16 12:51:50;;;;;;;9.47;6.67;;;9.60;99.90;;;;;;4968117;28;20232;-79
2020/12/16 12:54:17;;;;;;;8.30;5.73;;;9.60;99.90;;;;;;4968403;28;20197;-80
2020/12/16 12:56:43;;;;;;;7.57;5.87;;;9.60;99.90;;;;;;4967706;28;20199;-80
2020/12/16 12:59:10;;;;;;;8.77;6.33;;;9.60;99.90;;;;;;4969944;28;20193;-80
2020/12/16 13:01:35;;;;;;;12.47;8.50;;;9.70;99.90;;;;;;4966891;28;20855;-79
2020/12/16 13:04:01;;;;;;;15.97;10.40;;;9.70;99.90;;;;;;4967612;28;20189;-79